createdAt,value
2022-09-20T00:00:12.439Z,100675.19
2022-09-20T00:02:39.199Z,100672.94
2022-09-20T00:05:06.580Z,100685.03
2022-09-20T00:07:33.217Z,100683.53
2022-09-20T00:09:59.845Z,100681.59
2022-09-20T00:12:27.845Z,100688.16
2022-09-20T00:14:54.400Z,100688.00
2022-09-20T00:17:21.074Z,100680.47
2022-09-20T00:19:47.714Z,100662.84
2022-09-20T00:22:14.287Z,100668.25
2022-09-20T00:24:42.131Z,100675.03
2022-09-20T00:27:11.152Z,100668.34
2022-09-20T00:29:39.144Z,100660.63
2022-09-20T00:32:05.814Z,100662.00
2022-09-20T00:34:32.437Z,100660.09
2022-09-20T00:36:59.015Z,100651.63
2022-09-20T00:39:25.823Z,100659.94
2022-09-20T00:41:52.406Z,100658.88
2022-09-20T00:44:44.953Z,100666.69
2022-09-20T00:47:22.108Z,100661.22
2022-09-20T00:49:51.275Z,100657.22
2022-09-20T00:52:19.768Z,100659.56
2022-09-20T00:54:47.196Z,100655.28
2022-09-20T00:57:13.962Z,100649.97
2022-09-20T00:59:46.833Z,100641.28
2022-09-20T01:02:18.922Z,100653.97
2022-09-20T01:04:47.844Z,100670.50
2022-09-20T01:07:17.956Z,100674.47
2022-09-20T01:09:44.629Z,100672.06
2022-09-20T01:12:16.141Z,100671.34
2022-09-20T01:14:46.470Z,100657.06
2022-09-20T01:17:14.117Z,100662.50
2022-09-20T01:19:53.308Z,100649.53
2022-09-20T01:22:25.772Z,100646.03
2022-09-20T01:24:59.284Z,100654.84
2022-09-20T01:27:39.014Z,100670.47
2022-09-20T01:30:08.256Z,100664.09
2022-09-20T01:32:47.555Z,100674.63
2022-09-20T01:35:16.797Z,100658.94
2022-09-20T01:37:59.375Z,100664.38
2022-09-20T01:40:33.302Z,100655.66
2022-09-20T01:43:11.068Z,100655.94
2022-09-20T01:45:45.009Z,100666.03
2022-09-20T01:48:18.975Z,100653.31
2022-09-20T01:51:29.868Z,100648.66
2022-09-20T01:54:29.507Z,100646.47
2022-09-20T01:57:28.776Z,100635.13
2022-09-20T02:00:15.919Z,100632.66
2022-09-20T02:03:19.390Z,100634.56
2022-09-20T02:06:20.223Z,100632.69
2022-09-20T02:09:12.050Z,100644.94
2022-09-20T02:11:52.967Z,100634.50
2022-09-20T02:14:34.763Z,100638.34
2022-09-20T02:17:12.608Z,100649.56
2022-09-20T02:19:54.749Z,100649.50
2022-09-20T02:22:31.366Z,100643.16
2022-09-20T02:25:06.865Z,100632.72
2022-09-20T02:27:41.950Z,100633.22
2022-09-20T02:30:23.726Z,100632.34
2022-09-20T02:33:12.080Z,100614.75
2022-09-20T02:35:50.971Z,100616.25
2022-09-20T02:38:30.690Z,100619.38
2022-09-20T02:41:14.590Z,100621.03
2022-09-20T02:43:52.201Z,100620.75
2022-09-20T02:46:26.078Z,100628.72
2022-09-20T02:49:14.505Z,100615.97
2022-09-20T02:51:44.783Z,100633.78
2022-09-20T02:54:21.807Z,100635.25
2022-09-20T02:56:55.861Z,100634.94
2022-09-20T02:59:29.740Z,100635.00
2022-09-20T03:02:07.080Z,100644.78
2022-09-20T03:04:53.971Z,100637.34
2022-09-20T03:07:30.388Z,100635.25
2022-09-20T03:10:12.419Z,100649.47
2022-09-20T03:12:50.788Z,100646.50
2022-09-20T03:15:28.938Z,100648.59
2022-09-20T03:18:06.837Z,100651.63
2022-09-20T03:20:46.400Z,100652.75
2022-09-20T03:23:20.818Z,100650.56
2022-09-20T03:25:55.282Z,100650.06
2022-09-20T03:28:36.930Z,100641.69
2022-09-20T03:31:12.371Z,100638.19
2022-09-20T03:33:48.927Z,100639.31
2022-09-20T03:36:34.876Z,100662.28
2022-09-20T03:39:29.659Z,100622.69
2022-09-20T03:42:14.996Z,100587.38
2022-09-20T03:45:19.913Z,100588.25
2022-09-20T03:48:13.045Z,100584.72
2022-09-20T03:51:04.828Z,100643.00
2022-09-20T03:54:16.228Z,100628.16
2022-09-20T03:57:15.952Z,100592.16
2022-09-20T04:00:06.502Z,100655.28
2022-09-20T04:03:09.040Z,100659.13
2022-09-20T04:05:47.075Z,100620.25
2022-09-20T04:08:38.074Z,100654.81
2022-09-20T04:11:27.135Z,100627.59
2022-09-20T04:14:11.844Z,100630.16
2022-09-20T04:16:49.265Z,100639.06
2022-09-20T04:19:44.404Z,100651.00
2022-09-20T04:22:26.747Z,100661.81
2022-09-20T04:25:03.748Z,100600.56
2022-09-20T04:27:45.414Z,100661.81
2022-09-20T04:30:27.326Z,100663.38
2022-09-20T04:33:14.671Z,100627.00
2022-09-20T04:35:57.302Z,100629.31
2022-09-20T04:38:25.820Z,100629.88
2022-09-20T04:41:18.586Z,100628.66
2022-09-20T04:44:17.196Z,100634.66
2022-09-20T04:47:16.870Z,100674.22
2022-09-20T04:50:13.853Z,100677.88
2022-09-20T04:53:10.447Z,100669.25
2022-09-20T04:55:56.196Z,100671.97
2022-09-20T04:58:46.269Z,100675.19
2022-09-20T05:01:49.221Z,100668.47
2022-09-20T05:05:05.840Z,100671.50
2022-09-20T05:08:16.737Z,100676.44
2022-09-20T05:14:32.391Z,100686.34
2022-09-20T05:17:29.037Z,100642.31
2022-09-20T05:20:31.047Z,100629.22
2022-09-20T05:23:25.991Z,100700.59
2022-09-20T05:26:24.311Z,100644.34
2022-09-20T05:29:11.756Z,100695.97
2022-09-20T05:32:04.523Z,100710.34
2022-09-20T05:38:05.113Z,100706.34
2022-09-20T05:41:06.466Z,100674.41
2022-09-20T05:44:10.956Z,100636.59
2022-09-20T05:50:04.785Z,100670.91
2022-09-20T05:52:57.110Z,100702.25
2022-09-20T05:56:14.133Z,100636.69
2022-09-20T06:06:01.850Z,100623.47
2022-09-20T06:09:02.204Z,100629.91
2022-09-20T06:11:59.345Z,100653.88
2022-09-20T06:15:11.864Z,100693.22
2022-09-20T06:18:21.686Z,100695.81
2022-09-20T06:21:30.227Z,100701.25
2022-09-20T06:24:47.045Z,100687.59
2022-09-20T06:30:34.245Z,100718.38
2022-09-20T06:33:17.340Z,100685.38
2022-09-20T06:35:50.800Z,100676.66
2022-09-20T06:38:45.559Z,100707.34
2022-09-20T06:41:12.861Z,100705.78
2022-09-20T06:43:39.472Z,100708.19
2022-09-20T06:46:06.172Z,100710.84
2022-09-20T06:48:34.416Z,100684.56
2022-09-20T06:51:01.820Z,100702.25
2022-09-20T06:53:30.790Z,100703.13
2022-09-20T06:55:58.029Z,100702.63
2022-09-20T06:58:25.167Z,100713.06
2022-09-20T07:00:55.769Z,100702.28
2022-09-20T07:03:26.965Z,100710.13
2022-09-20T07:51:53.739Z,100684.38
2022-09-20T08:23:22.507Z,100731.41
2022-09-20T08:26:12.285Z,100690.25
2022-09-20T08:29:50.158Z,100669.41
2022-09-20T08:56:55.878Z,100630.59
2022-09-20T08:59:23.406Z,100677.88
2022-09-20T09:01:51.068Z,100687.84
2022-09-20T09:04:22.237Z,100648.31
2022-09-20T09:07:00.631Z,100662.59
2022-09-20T09:09:28.801Z,100664.13
2022-09-20T09:11:57.829Z,100682.38
2022-09-20T09:14:30.515Z,100681.44
2022-09-20T09:17:19.381Z,100656.91
2022-09-20T09:19:58.664Z,100685.69
2022-09-20T09:22:29.608Z,100633.41
2022-09-20T09:25:36.808Z,100646.75
2022-09-20T09:28:13.892Z,100617.63
2022-09-20T09:30:45.830Z,100647.09
2022-09-20T09:33:37.441Z,100609.97
2022-09-20T09:36:08.894Z,100596.34
2022-09-20T09:38:37.945Z,100638.25
2022-09-20T09:41:06.828Z,100620.28
2022-09-20T09:44:05.279Z,100629.34
2022-09-20T09:46:43.294Z,100637.09
2022-09-20T09:49:18.041Z,100602.50
2022-09-20T09:52:04.489Z,100576.03
2022-09-20T09:54:34.127Z,100591.13
2022-09-20T09:57:16.273Z,100565.69
2022-09-20T10:00:00.947Z,100599.28
2022-09-20T10:03:00.176Z,100615.91
2022-09-20T10:05:35.672Z,100599.75
2022-09-20T10:08:14.943Z,100585.38
2022-09-20T10:10:54.250Z,100588.03
2022-09-20T10:13:29.911Z,100593.63
2022-09-20T10:16:05.522Z,100595.84
2022-09-20T10:18:47.748Z,100595.63
2022-09-20T10:21:35.902Z,100586.63
2022-09-20T10:24:14.215Z,100584.31
2022-09-20T10:27:05.799Z,100585.78
2022-09-20T10:29:44.546Z,100564.78
2022-09-20T10:32:27.844Z,100572.09
2022-09-20T10:35:13.838Z,100574.31
2022-09-20T10:37:53.885Z,100572.84
2022-09-20T10:40:28.853Z,100569.34
2022-09-20T10:43:07.868Z,100561.81
2022-09-20T10:46:08.714Z,100567.72
2022-09-20T10:48:38.413Z,100558.38
2022-09-20T10:51:16.436Z,100556.50
2022-09-20T10:53:51.193Z,100548.44
2022-09-20T10:56:27.807Z,100555.16
2022-09-20T10:59:25.076Z,100553.28
2022-09-20T11:02:09.788Z,100537.53
2022-09-20T11:04:56.644Z,100540.63
2022-09-20T11:07:33.042Z,100541.78
2022-09-20T11:10:05.793Z,100530.63
2022-09-20T11:12:37.282Z,100528.84
2022-09-20T11:15:12.254Z,100515.53
2022-09-20T11:17:42.729Z,100531.31
2022-09-20T11:20:19.306Z,100506.78
2022-09-20T11:22:49.627Z,100523.94
2022-09-20T11:25:21.534Z,100523.88
2022-09-20T11:27:53.332Z,100506.03
2022-09-20T11:30:21.971Z,100513.19
2022-09-20T11:32:54.238Z,100528.06
2022-09-20T11:35:28.964Z,100512.91
2022-09-20T11:38:06.263Z,100506.41
2022-09-20T11:40:37.259Z,100517.59
2022-09-20T11:43:08.727Z,100511.13
2022-09-20T11:45:38.926Z,100514.59
2022-09-20T11:48:10.147Z,100499.69
2022-09-20T11:51:02.133Z,100513.38
2022-09-20T11:53:47.084Z,100494.00
2022-09-20T11:56:22.151Z,100486.78
2022-09-20T11:58:51.010Z,100466.00
2022-09-20T12:01:28.419Z,100486.41
2022-09-20T12:04:20.660Z,100478.97
2022-09-20T12:06:47.775Z,100477.59
2022-09-20T12:09:25.212Z,100484.63
2022-09-20T12:11:52.786Z,100484.47
2022-09-20T12:14:22.594Z,100479.28
2022-09-20T12:16:50.962Z,100488.78
2022-09-20T12:19:38.485Z,100491.50
2022-09-20T12:22:28.208Z,100496.34
2022-09-20T12:25:36.481Z,100489.22
2022-09-20T12:28:03.513Z,100497.66
2022-09-20T12:30:30.273Z,100492.13
2022-09-20T12:32:59.402Z,100495.59
2022-09-20T12:36:25.696Z,100468.97
2022-09-20T12:39:04.597Z,100483.97
2022-09-20T12:41:46.170Z,100481.00
2022-09-20T12:44:25.872Z,100490.41
2022-09-20T12:46:55.881Z,100483.09
2022-09-20T12:49:47.175Z,100480.41
2022-09-20T12:52:30.802Z,100484.09
2022-09-20T12:55:04.636Z,100473.06
2022-09-20T12:57:34.337Z,100468.69
2022-09-20T13:00:03.978Z,100454.03
2022-09-20T13:02:57.291Z,100467.88
2022-09-20T13:05:32.447Z,100459.47
2022-09-20T13:08:17.612Z,100465.97
2022-09-20T13:10:48.407Z,100446.44
2022-09-20T13:13:39.526Z,100423.41
2022-09-20T13:16:07.199Z,100441.31
2022-09-20T13:18:36.260Z,100435.09
2022-09-20T13:21:07.794Z,100454.03
2022-09-20T13:23:45.354Z,100450.72
2022-09-20T13:26:15.815Z,100438.41
2022-09-20T13:28:49.394Z,100446.66
2022-09-20T13:31:26.638Z,100443.63
2022-09-20T13:33:53.458Z,100423.81
2022-09-20T13:36:28.696Z,100428.19
2022-09-20T13:38:57.474Z,100439.63
2022-09-20T13:41:28.663Z,100446.09
2022-09-20T13:43:55.474Z,100417.44
2022-09-20T13:46:24.431Z,100434.50
2022-09-20T13:48:57.856Z,100430.78
2022-09-20T13:51:26.757Z,100423.84
2022-09-20T13:53:53.889Z,100425.72
2022-09-20T13:56:22.990Z,100428.03
2022-09-20T13:58:51.814Z,100416.38
2022-09-20T14:01:26.780Z,100428.97
2022-09-20T14:03:53.826Z,100426.19
2022-09-20T14:06:25.481Z,100424.16
2022-09-20T14:08:52.425Z,100425.97
2022-09-20T14:11:21.468Z,100417.66
2022-09-20T14:13:51.708Z,100429.72
2022-09-20T14:16:22.066Z,100429.63
2022-09-20T14:18:49.817Z,100430.44
2022-09-20T14:21:21.828Z,100433.03
2022-09-20T14:23:53.674Z,100433.75
2022-09-20T14:26:26.233Z,100435.31
2022-09-20T14:28:53.370Z,100430.59
2022-09-20T14:31:25.401Z,100433.16
2022-09-20T14:33:55.405Z,100436.66
2022-09-20T14:36:24.310Z,100430.47
2022-09-20T14:38:53.732Z,100418.38
2022-09-20T14:41:28.055Z,100433.53
2022-09-20T14:43:56.879Z,100421.25
2022-09-20T14:46:31.779Z,100427.16
2022-09-20T14:49:19.827Z,100427.59
2022-09-20T14:51:46.456Z,100429.50
2022-09-20T14:54:25.102Z,100423.97
2022-09-20T14:56:51.781Z,100438.66
2022-09-20T14:59:24.864Z,100423.41
2022-09-20T15:02:01.056Z,100438.41
2022-09-20T15:04:28.243Z,100440.91
2022-09-20T15:06:56.330Z,100433.13
2022-09-20T15:09:23.025Z,100441.28
2022-09-20T15:12:00.503Z,100426.81
2022-09-20T15:14:27.311Z,100445.66
2022-09-20T15:16:54.219Z,100451.78
2022-09-20T15:19:22.330Z,100454.34
2022-09-20T15:21:49.008Z,100441.72
2022-09-20T15:24:15.607Z,100456.31
2022-09-20T15:26:42.263Z,100460.41
2022-09-20T15:29:13.895Z,100472.50
2022-09-20T15:31:40.613Z,100489.88
2022-09-20T15:34:07.490Z,100504.84
2022-09-20T15:36:35.785Z,100491.97
2022-09-20T15:39:02.422Z,100522.56
2022-09-20T15:41:31.247Z,100520.06
2022-09-20T15:43:58.256Z,100523.81
2022-09-20T15:46:25.792Z,100533.59
2022-09-20T15:48:52.730Z,100547.16
2022-09-20T15:51:19.778Z,100548.00
2022-09-20T15:53:54.218Z,100570.13
2022-09-20T15:56:22.724Z,100572.69
2022-09-20T15:58:50.985Z,100591.53
2022-09-20T16:01:18.917Z,100597.66
2022-09-20T16:03:46.623Z,100590.94
2022-09-20T16:06:13.509Z,100621.84
2022-09-20T16:08:43.186Z,100649.50
2022-09-20T16:11:16.494Z,100641.44
2022-09-20T16:13:46.168Z,100661.69
2022-09-20T16:16:13.111Z,100661.69
2022-09-20T16:18:39.797Z,100661.47
2022-09-20T16:21:07.827Z,100668.16
2022-09-20T16:23:34.548Z,100668.00
2022-09-20T16:26:01.263Z,100664.69
2022-09-20T16:28:29.280Z,100664.53
2022-09-20T16:30:56.666Z,100656.72
2022-09-20T16:33:23.294Z,100656.81
2022-09-20T16:35:49.994Z,100670.25
2022-09-20T16:38:16.654Z,100674.47
2022-09-20T16:40:43.292Z,100672.41
2022-09-20T16:43:09.989Z,100668.75
2022-09-20T16:45:38.030Z,100683.13
2022-09-20T16:48:08.489Z,100680.31
2022-09-20T16:50:35.316Z,100657.78
2022-09-20T16:53:01.956Z,100682.69
2022-09-20T16:55:28.780Z,100687.88
2022-09-20T16:57:55.407Z,100670.00
2022-09-20T17:00:22.145Z,100666.53
2022-09-20T17:02:50.865Z,100669.47
2022-09-20T17:05:17.664Z,100684.16
2022-09-20T17:07:44.255Z,100662.31
2022-09-20T17:10:10.998Z,100678.22
2022-09-20T17:12:37.551Z,100679.63
2022-09-20T17:15:04.786Z,100683.78
2022-09-20T17:17:31.430Z,100668.28
2022-09-20T17:19:59.805Z,100670.19
2022-09-20T17:22:26.400Z,100681.88
2022-09-20T17:24:53.029Z,100669.53
2022-09-20T17:27:19.662Z,100664.25
2022-09-20T17:29:46.311Z,100679.38
2022-09-20T17:32:14.266Z,100693.41
2022-09-20T17:34:41.070Z,100688.66
2022-09-20T17:37:09.049Z,100689.88
2022-09-20T17:39:35.778Z,100698.75
2022-09-20T17:42:02.377Z,100706.00
2022-09-20T17:44:29.061Z,100696.88
2022-09-20T17:46:55.912Z,100712.78
2022-09-20T17:49:23.510Z,100704.41
2022-09-20T17:51:51.901Z,100702.00
2022-09-20T17:54:21.015Z,100702.00
2022-09-20T17:56:49.374Z,100694.94
2022-09-20T17:59:17.563Z,100700.16
2022-09-20T18:01:45.711Z,100704.47
2022-09-20T18:04:12.908Z,100708.19
2022-09-20T18:06:41.128Z,100723.88
2022-09-20T18:09:11.221Z,100716.84
2022-09-20T18:11:41.434Z,100723.44
2022-09-20T18:14:09.862Z,100729.41
2022-09-20T18:16:37.370Z,100740.50
2022-09-20T18:19:04.772Z,100708.78
2022-09-20T18:21:32.322Z,100741.88
2022-09-20T18:23:59.049Z,100738.28
2022-09-20T18:26:27.789Z,100746.13
2022-09-20T18:29:00.152Z,100746.91
2022-09-20T18:31:28.588Z,100746.53
2022-09-20T18:33:57.446Z,100752.56
2022-09-20T18:36:24.569Z,100758.47
2022-09-20T18:38:51.784Z,100760.50
2022-09-20T18:41:18.364Z,100771.31
2022-09-20T18:43:46.627Z,100752.81
2022-09-20T18:46:14.765Z,100769.94
2022-09-20T18:48:41.401Z,100779.22
2022-09-20T18:51:08.780Z,100790.09
2022-09-20T18:53:36.995Z,100789.50
2022-09-20T18:56:08.373Z,100786.88
2022-09-20T18:58:36.596Z,100808.06
2022-09-20T19:01:23.527Z,100817.72
2022-09-20T19:04:00.834Z,100811.19
2022-09-20T19:06:33.953Z,100823.22
2022-09-20T19:09:04.781Z,100805.91
2022-09-20T19:11:37.840Z,100799.16
2022-09-20T19:14:11.282Z,100795.63
2022-09-20T19:16:39.680Z,100811.84
2022-09-20T19:19:33.205Z,100817.75
2022-09-20T19:22:08.441Z,100828.19
2022-09-20T19:24:51.729Z,100798.69
2022-09-20T19:27:18.777Z,100825.38
2022-09-20T19:29:46.234Z,100837.38
2022-09-20T19:32:17.491Z,100849.09
2022-09-20T19:34:44.971Z,100848.31
2022-09-20T19:37:23.920Z,100853.81
2022-09-20T19:40:07.179Z,100863.75
2022-09-20T19:42:40.516Z,100855.41
2022-09-20T19:45:19.400Z,100853.84
2022-09-20T19:47:54.273Z,100850.16
2022-09-20T19:50:27.326Z,100862.47
2022-09-20T19:52:55.088Z,100875.53
2022-09-20T19:55:22.562Z,100881.44
2022-09-20T19:57:49.825Z,100880.09
2022-09-20T20:00:19.100Z,100872.91
2022-09-20T20:02:48.398Z,100876.41
2022-09-20T20:05:17.779Z,100877.16
2022-09-20T20:07:52.401Z,100870.38
2022-09-20T20:10:26.818Z,100878.84
2022-09-20T20:12:59.834Z,100891.84
2022-09-20T20:15:38.714Z,100879.97
2022-09-20T20:18:17.410Z,100884.84
2022-09-20T20:20:47.626Z,100878.84
2022-09-20T20:23:40.715Z,100879.00
2022-09-20T20:26:09.213Z,100886.59
2022-09-20T20:28:36.851Z,100881.53
2022-09-20T20:31:04.644Z,100888.13
2022-09-20T20:33:32.764Z,100895.31
2022-09-20T20:36:01.245Z,100882.03
2022-09-20T20:38:28.280Z,100898.63
2022-09-20T20:40:58.923Z,100895.03
2022-09-20T20:43:25.512Z,100906.00
2022-09-20T20:45:52.149Z,100905.53
2022-09-20T20:48:18.832Z,100906.59
2022-09-20T20:50:46.787Z,100916.34
2022-09-20T20:53:13.393Z,100925.16
2022-09-20T20:55:39.990Z,100932.13
2022-09-20T20:58:06.794Z,100939.66
2022-09-20T21:00:33.391Z,100944.31
2022-09-20T21:03:01.479Z,100937.09
2022-09-20T21:05:28.746Z,100939.56
2022-09-20T21:07:56.753Z,100943.63
2022-09-20T21:10:23.718Z,100950.56
2022-09-20T21:12:53.256Z,100949.66
2022-09-20T21:15:19.748Z,100955.38
2022-09-20T21:17:50.598Z,100951.41
2022-09-20T21:20:17.218Z,100952.13
2022-09-20T21:22:43.846Z,100968.44
2022-09-20T21:25:11.835Z,100972.50
2022-09-20T21:27:38.409Z,100974.66
2022-09-20T21:30:06.015Z,100975.72
2022-09-20T21:32:32.675Z,100982.03
2022-09-20T21:34:59.262Z,100977.47
2022-09-20T21:37:25.943Z,100989.31
2022-09-20T21:39:52.545Z,100987.88
2022-09-20T21:42:20.511Z,100968.53
2022-09-20T21:44:47.158Z,100978.53
2022-09-20T21:47:13.790Z,100988.88
2022-09-20T21:49:40.392Z,100997.97
2022-09-20T21:52:06.999Z,100994.66
2022-09-20T21:54:33.650Z,100995.00
2022-09-20T21:57:00.250Z,100999.09
2022-09-20T21:59:28.178Z,100987.53
2022-09-20T22:01:54.895Z,100993.88
2022-09-20T22:04:21.519Z,100990.16
2022-09-20T22:06:48.118Z,101004.44
2022-09-20T22:09:16.729Z,100996.22
2022-09-20T22:11:44.908Z,101003.22
2022-09-20T22:14:13.085Z,100998.31
2022-09-20T22:16:42.794Z,101000.16
2022-09-20T22:19:11.612Z,100988.31
2022-09-20T22:21:41.284Z,100992.94
2022-09-20T22:24:10.055Z,100995.53
2022-09-20T22:26:38.326Z,100996.31
2022-09-20T22:29:05.090Z,100990.06
2022-09-20T22:31:33.139Z,100987.44
2022-09-20T22:34:03.076Z,100995.78
2022-09-20T22:36:31.809Z,100997.88
2022-09-20T22:38:58.737Z,101000.94
2022-09-20T22:41:25.704Z,101005.69
2022-09-20T22:43:52.275Z,101004.88
2022-09-20T22:46:20.931Z,101003.03
2022-09-20T22:48:48.519Z,100996.03
2022-09-20T22:51:17.757Z,100988.31
2022-09-20T22:53:45.063Z,100988.84
2022-09-20T22:56:13.787Z,100977.28
2022-09-20T22:58:42.012Z,100988.50
2022-09-20T23:01:10.976Z,100979.16
2022-09-20T23:03:38.641Z,100977.47
2022-09-20T23:06:11.669Z,100981.03
2022-09-20T23:08:39.907Z,100984.13
2022-09-20T23:11:07.128Z,100986.84
2022-09-20T23:13:33.942Z,100989.03
2022-09-20T23:16:00.812Z,100998.16
2022-09-20T23:18:27.435Z,100995.25
2022-09-20T23:21:01.442Z,100996.03
2022-09-20T23:23:28.309Z,100993.75
2022-09-20T23:26:02.567Z,100984.94
2022-09-20T23:28:29.116Z,100974.94
2022-09-20T23:31:02.759Z,100984.47
2022-09-20T23:33:31.004Z,100981.84
2022-09-20T23:35:57.743Z,100983.59
2022-09-20T23:38:24.382Z,100996.63
2022-09-20T23:40:51.126Z,100974.75
2022-09-20T23:43:19.060Z,100987.53
2022-09-20T23:45:45.784Z,100990.06
2022-09-20T23:48:12.498Z,100976.91
2022-09-20T23:50:39.126Z,100984.91
2022-09-20T23:53:05.747Z,100986.84
2022-09-20T23:55:32.344Z,100990.88
2022-09-20T23:57:58.914Z,100994.56
